Time;durP1;ratioP1;P1;durP2;ratioP2;P2;SDS_P1;SDS_P2;PMS_P1;PMS_P2;Temp;Humidity;BMP_temperature;BMP_pressure;BME280_temperature;BME280_humidity;BME280_pressure;Samples;Min_cycle;Max_cycle;Signal;HPM_P1;HPM_P2
2021/09/30 00:02:11;;;;;;;1.20;1.00;;;12.20;98.00;;;;;;5092307;28;20540;-70
2021/09/30 00:04:38;;;;;;;1.20;1.10;;;12.10;98.00;;;;;;5092256;28;20547;-70
2021/09/30 00:07:07;;;;;;;1.30;1.20;;;12.20;98.00;;;;;;5092083;28;20566;-69
2021/09/30 00:09:34;;;;;;;1.20;1.00;;;12.10;98.00;;;;;;5091999;28;20467;-69
2021/09/30 00:12:09;;;;;;;1.20;1.00;;;12.10;98.00;;;;;;5092232;28;20450;-70
2021/09/30 00:14:47;;;;;;;1.20;1.00;;;12.00;98.00;;;;;;5092523;28;20453;-69
2021/09/30 00:34:08;;;;;;;1.30;1.13;;;11.70;98.00;;;;;;5084517;28;20452;-69
2021/09/30 00:42:06;;;;;;;1.20;0.93;;;11.50;98.00;;;;;;5091660;28;20475;-70
2021/09/30 00:47:34;;;;;;;1.20;1.10;;;11.40;98.00;;;;;;5059340;28;20484;-70
2021/09/30 00:50:11;;;;;;;1.30;1.10;;;11.40;98.00;;;;;;5091143;28;21019;-69
2021/09/30 00:52:45;;;;;;;1.40;1.17;;;11.40;98.00;;;;;;5090331;28;20892;-70
2021/09/30 00:55:47;;;;;;;1.77;1.00;;;11.40;98.00;;;;;;5091506;28;20460;-69
2021/09/30 02:19:40;;;;;;;1.20;1.00;;;9.40;98.00;;;;;;5090628;28;20867;-69
2021/09/30 02:22:28;;;;;;;1.20;1.00;;;9.30;98.00;;;;;;5090763;28;20484;-70
2021/09/30 02:58:34;;;;;;;1.20;0.97;;;9.00;98.00;;;;;;5093798;28;20462;-70
2021/09/30 03:01:04;;;;;;;1.30;1.20;;;9.00;98.00;;;;;;5093943;28;20465;-69
2021/09/30 03:03:35;;;;;;;1.20;1.03;;;8.80;98.00;;;;;;5093936;28;20458;-70
2021/09/30 03:06:06;;;;;;;2.50;1.77;;;8.70;98.00;;;;;;5093633;28;20450;-70
2021/09/30 03:08:36;;;;;;;1.20;1.00;;;8.60;98.00;;;;;;5093510;28;20499;-69
2021/09/30 03:11:04;;;;;;;1.20;1.00;;;8.50;98.00;;;;;;5093456;28;20581;-69
2021/09/30 03:13:32;;;;;;;1.20;1.00;;;8.50;98.00;;;;;;5093337;28;20709;-70
2021/09/30 03:16:04;;;;;;;1.30;1.00;;;8.40;98.00;;;;;;5093320;28;20548;-69
2021/09/30 03:18:48;;;;;;;2.20;1.10;;;8.40;98.00;;;;;;5092028;28;20484;-69
2021/09/30 03:24:03;;;;;;;1.20;0.90;;;8.50;98.00;;;;;;5093396;28;20458;-70
2021/09/30 03:26:32;;;;;;;1.20;1.00;;;8.50;98.00;;;;;;5093101;28;20589;-69
2021/09/30 03:29:00;;;;;;;1.53;1.10;;;8.50;98.00;;;;;;5091826;28;20472;-69
2021/09/30 03:31:28;;;;;;;1.63;1.00;;;8.60;98.00;;;;;;5093005;28;20487;-70
2021/09/30 03:33:55;;;;;;;1.20;1.10;;;8.60;98.00;;;;;;5093047;28;20868;-69
2021/09/30 03:36:32;;;;;;;1.40;1.20;;;8.60;98.00;;;;;;5092831;28;20502;-71
2021/09/30 03:38:59;;;;;;;1.40;1.10;;;8.60;98.00;;;;;;5076148;28;20945;-69
2021/09/30 03:41:26;;;;;;;1.20;1.00;;;8.70;98.00;;;;;;5092567;28;20498;-69
2021/09/30 03:43:53;;;;;;;1.83;1.20;;;8.50;98.00;;;;;;5092718;28;20513;-69
2021/09/30 03:46:21;;;;;;;1.20;1.00;;;8.60;98.00;;;;;;5092707;28;20463;-69
2021/09/30 03:48:54;;;;;;;1.30;1.10;;;8.60;98.00;;;;;;5092683;28;20460;-70
2021/09/30 03:51:31;;;;;;;1.40;1.10;;;8.60;98.00;;;;;;5092403;28;20476;-70
2021/09/30 03:54:11;;;;;;;1.20;1.00;;;8.60;98.00;;;;;;5092419;28;20489;-68
2021/09/30 03:56:50;;;;;;;1.57;1.20;;;8.60;98.00;;;;;;5092528;28;20848;-69
2021/09/30 03:59:20;;;;;;;1.20;0.90;;;8.60;98.00;;;;;;5092425;28;20452;-70
2021/09/30 04:01:55;;;;;;;1.20;1.00;;;8.40;98.00;;;;;;5092270;28;20499;-70
2021/09/30 04:04:22;;;;;;;1.20;1.00;;;8.30;98.00;;;;;;5092453;28;20457;-69
2021/09/30 04:06:49;;;;;;;1.30;1.10;;;8.20;98.00;;;;;;5092453;28;20454;-69
2021/09/30 04:09:18;;;;;;;1.20;1.00;;;8.20;98.00;;;;;;5092150;28;20827;-69
2021/09/30 04:11:46;;;;;;;1.20;1.03;;;8.10;98.00;;;;;;5092015;28;20494;-70
2021/09/30 04:14:13;;;;;;;1.20;1.00;;;7.90;98.00;;;;;;5092304;28;20951;-68
2021/09/30 04:16:41;;;;;;;1.70;1.23;;;7.90;98.00;;;;;;5092063;28;20456;-69
2021/09/30 04:19:08;;;;;;;1.20;1.00;;;7.80;98.00;;;;;;5092038;28;20453;-69
2021/09/30 04:21:35;;;;;;;1.20;1.00;;;7.80;98.00;;;;;;5092018;28;20461;-69
2021/09/30 04:24:02;;;;;;;1.20;1.00;;;7.80;98.00;;;;;;5092311;28;20454;-70
2021/09/30 04:26:32;;;;;;;1.20;0.90;;;7.80;98.00;;;;;;5091886;28;20487;-69
2021/09/30 04:28:59;;;;;;;1.20;1.00;;;7.80;98.00;;;;;;5091867;28;20463;-70
2021/09/30 04:31:26;;;;;;;1.20;1.00;;;7.80;98.00;;;;;;5091750;28;20486;-70
2021/09/30 04:33:53;;;;;;;1.20;1.00;;;7.80;98.00;;;;;;5091785;28;20525;-69
2021/09/30 04:36:21;;;;;;;1.20;1.00;;;7.80;98.00;;;;;;5091555;28;20460;-69
2021/09/30 04:38:48;;;;;;;1.20;1.00;;;7.80;98.00;;;;;;5091712;28;20460;-70
2021/09/30 04:41:16;;;;;;;1.20;1.00;;;7.80;98.00;;;;;;5090277;28;20680;-69
2021/09/30 04:43:45;;;;;;;1.20;0.90;;;7.60;98.00;;;;;;5091331;28;20907;-70
2021/09/30 04:46:12;;;;;;;1.20;0.93;;;7.50;98.00;;;;;;5090213;28;20463;-70
2021/09/30 04:48:39;;;;;;;1.43;1.23;;;7.60;98.00;;;;;;5091652;28;20463;-69
2021/09/30 04:51:08;;;;;;;1.20;0.90;;;7.60;98.00;;;;;;5091422;28;20491;-69
2021/09/30 04:53:35;;;;;;;1.20;0.93;;;7.60;98.00;;;;;;5091334;28;20448;-69
2021/09/30 04:56:04;;;;;;;1.20;1.00;;;7.50;98.00;;;;;;5091331;28;20463;-71
2021/09/30 04:58:31;;;;;;;1.20;1.10;;;7.40;98.00;;;;;;5091413;28;20555;-69
2021/09/30 05:00:59;;;;;;;1.20;1.00;;;7.40;98.00;;;;;;5090721;28;20457;-69
2021/09/30 05:03:26;;;;;;;1.20;1.00;;;7.50;98.00;;;;;;5091371;28;21072;-69
2021/09/30 05:05:53;;;;;;;1.20;1.10;;;7.40;98.00;;;;;;5090258;28;20500;-70
2021/09/30 05:08:20;;;;;;;1.20;1.00;;;7.50;98.00;;;;;;5091345;28;20525;-69
2021/09/30 05:10:49;;;;;;;1.20;1.00;;;7.50;98.00;;;;;;5091226;28;20489;-69
2021/09/30 05:13:35;;;;;;;1.20;1.00;;;7.60;98.00;;;;;;5091368;28;20460;-69
2021/09/30 05:16:05;;;;;;;1.20;1.00;;;7.50;98.00;;;;;;5091072;28;20463;-69
2021/09/30 05:18:32;;;;;;;1.20;1.00;;;7.40;98.00;;;;;;5091233;28;20449;-69
2021/09/30 05:20:59;;;;;;;1.20;1.00;;;7.40;98.00;;;;;;5090986;28;20747;-70
2021/09/30 05:23:26;;;;;;;1.20;0.90;;;7.40;98.00;;;;;;5090915;28;20493;-69
2021/09/30 05:25:53;;;;;;;1.20;0.93;;;7.40;98.00;;;;;;5091037;28;20448;-70
2021/09/30 05:28:20;;;;;;;1.20;1.00;;;7.30;98.00;;;;;;5091048;28;20498;-69
2021/09/30 05:30:47;;;;;;;1.20;1.10;;;7.30;98.00;;;;;;5090933;28;20493;-70
2021/09/30 05:33:16;;;;;;;1.20;1.00;;;7.40;98.00;;;;;;5090986;28;20451;-69
2021/09/30 05:35:47;;;;;;;1.90;1.60;;;7.60;98.00;;;;;;5090985;28;20954;-70
2021/09/30 05:38:15;;;;;;;1.20;1.00;;;7.70;98.00;;;;;;5090645;28;20457;-69
2021/09/30 05:40:47;;;;;;;1.20;0.90;;;7.60;98.00;;;;;;5090995;28;20938;-69
2021/09/30 05:43:19;;;;;;;1.30;1.20;;;7.40;98.00;;;;;;5090026;28;20491;-70
2021/09/30 05:45:52;;;;;;;1.33;1.10;;;7.40;98.00;;;;;;5091182;28;20533;-69
2021/09/30 05:48:20;;;;;;;1.30;1.10;;;7.40;98.00;;;;;;5089828;28;20460;-69
2021/09/30 05:50:47;;;;;;;1.20;1.10;;;7.50;98.00;;;;;;5091014;28;20528;-69
2021/09/30 05:53:15;;;;;;;1.67;1.33;;;7.50;98.00;;;;;;5089455;28;20467;-70
2021/09/30 05:55:42;;;;;;;1.50;1.30;;;7.50;98.00;;;;;;5090697;28;20535;-69
2021/09/30 05:58:09;;;;;;;1.20;0.90;;;7.40;98.00;;;;;;5090615;28;20449;-69
2021/09/30 06:00:43;;;;;;;1.43;1.37;;;7.50;98.00;;;;;;5090759;28;20462;-69
2021/09/30 06:11:47;;;;;;;1.20;0.93;;;7.60;98.00;;;;;;5090121;28;20447;-69
2021/09/30 06:14:16;;;;;;;1.20;1.00;;;7.60;98.00;;;;;;5094071;28;20487;-69
2021/09/30 06:16:48;;;;;;;1.20;1.00;;;7.60;98.00;;;;;;5094372;28;20971;-69
2021/09/30 06:19:20;;;;;;;3.40;1.20;;;7.50;98.00;;;;;;5093202;28;20450;-70
2021/09/30 06:21:48;;;;;;;1.20;1.00;;;7.30;98.00;;;;;;5094304;28;20453;-70
2021/09/30 06:24:15;;;;;;;1.20;1.00;;;7.20;98.00;;;;;;5093992;28;20483;-69
2021/09/30 06:26:43;;;;;;;1.20;1.00;;;7.20;98.00;;;;;;5094100;28;20506;-70
2021/09/30 06:29:10;;;;;;;1.20;1.00;;;7.20;98.00;;;;;;5094129;28;20452;-69
2021/09/30 06:31:37;;;;;;;1.20;1.00;;;7.20;98.00;;;;;;5094012;28;20481;-70
2021/09/30 06:34:04;;;;;;;1.20;1.00;;;7.20;98.00;;;;;;5094052;28;20447;-70
2021/09/30 06:36:31;;;;;;;1.20;1.00;;;7.30;98.00;;;;;;5093911;28;21004;-69
2021/09/30 06:39:21;;;;;;;1.47;1.40;;;7.40;98.00;;;;;;5093811;28;20508;-69
2021/09/30 06:41:48;;;;;;;1.20;1.00;;;7.60;98.00;;;;;;5092493;28;20477;-68
2021/09/30 06:44:15;;;;;;;1.20;1.00;;;7.70;98.00;;;;;;5093946;28;20480;-69
2021/09/30 06:46:42;;;;;;;1.20;1.00;;;7.80;98.00;;;;;;5093784;28;20498;-66
2021/09/30 06:49:09;;;;;;;1.20;1.00;;;7.80;98.00;;;;;;5093672;28;20517;-68
2021/09/30 06:51:36;;;;;;;1.20;0.90;;;7.90;98.00;;;;;;5093676;28;20499;-67
2021/09/30 06:54:05;;;;;;;1.20;1.00;;;8.00;98.00;;;;;;5093662;28;20455;-69
2021/09/30 06:56:33;;;;;;;1.20;0.90;;;8.00;98.00;;;;;;5093773;28;20804;-69
2021/09/30 06:59:05;;;;;;;1.30;1.00;;;8.00;98.00;;;;;;5093699;28;20521;-67
2021/09/30 07:01:33;;;;;;;1.20;1.10;;;8.00;98.00;;;;;;5093807;28;20826;-68
2021/09/30 07:04:00;;;;;;;1.20;0.97;;;8.00;98.00;;;;;;5093679;28;20490;-68
2021/09/30 07:06:27;;;;;;;1.20;1.10;;;8.10;98.00;;;;;;5092536;28;20485;-69
2021/09/30 07:08:55;;;;;;;14.83;1.87;;;8.10;98.00;;;;;;5091651;28;20513;-69
2021/09/30 07:11:22;;;;;;;1.20;0.90;;;8.30;98.00;;;;;;5101137;28;20818;-69
2021/09/30 07:13:50;;;;;;;1.20;0.93;;;8.30;98.00;;;;;;5101103;28;20866;-69
2021/09/30 07:16:17;;;;;;;1.20;1.00;;;8.30;98.00;;;;;;5111025;28;20465;-70
2021/09/30 07:18:44;;;;;;;1.20;1.00;;;8.40;98.00;;;;;;5109822;28;20489;-71
2021/09/30 07:21:11;;;;;;;1.20;1.00;;;8.50;98.00;;;;;;5101535;28;20485;-70
2021/09/30 07:23:38;;;;;;;1.20;0.90;;;8.60;98.00;;;;;;5098502;28;20563;-70
2021/09/30 07:26:07;;;;;;;1.20;1.00;;;8.70;98.00;;;;;;5109049;28;20488;-68
2021/09/30 07:28:34;;;;;;;1.20;1.10;;;8.80;98.00;;;;;;5090189;28;20900;-70
2021/09/30 07:31:02;;;;;;;1.20;1.00;;;8.80;98.00;;;;;;5109369;28;20448;-71
2021/09/30 07:33:31;;;;;;;1.20;1.10;;;8.90;98.00;;;;;;5109168;28;20453;-70
2021/09/30 07:35:58;;;;;;;1.20;1.00;;;9.20;98.00;;;;;;5100517;28;21029;-69
2021/09/30 07:38:26;;;;;;;1.20;1.00;;;9.50;98.00;;;;;;5100327;28;20459;-70
2021/09/30 07:40:53;;;;;;;1.20;1.10;;;9.70;98.00;;;;;;5090067;28;20817;-68
2021/09/30 07:43:22;;;;;;;1.20;1.00;;;9.80;98.00;;;;;;5091374;28;20519;-69
2021/09/30 07:45:49;;;;;;;1.20;1.00;;;9.80;98.00;;;;;;5091170;28;20469;-69
2021/09/30 07:48:17;;;;;;;1.20;0.90;;;9.90;98.00;;;;;;5089911;28;20491;-69
2021/09/30 07:50:45;;;;;;;1.20;1.00;;;9.90;98.00;;;;;;5104879;28;20459;-69
2021/09/30 07:53:14;;;;;;;1.70;1.30;;;10.10;98.00;;;;;;5091427;28;21054;-68
2021/09/30 07:55:41;;;;;;;1.20;0.97;;;10.30;98.00;;;;;;5071575;28;21043;-70
2021/09/30 07:58:09;;;;;;;1.93;1.20;;;10.50;98.00;;;;;;5107358;28;20459;-69
2021/09/30 08:00:37;;;;;;;1.20;1.00;;;10.70;98.00;;;;;;5087567;28;20461;-69
2021/09/30 08:03:05;;;;;;;1.20;1.00;;;11.10;98.00;;;;;;5099611;28;20482;-68
2021/09/30 08:05:35;;;;;;;1.10;0.90;;;11.60;98.00;;;;;;5101343;28;20466;-69
2021/09/30 08:08:03;;;;;;;1.60;1.20;;;12.60;98.00;;;;;;5091376;28;20460;-69
2021/09/30 08:10:32;;;;;;;1.30;1.10;;;13.20;98.00;;;;;;5106205;28;20488;-69
2021/09/30 08:12:59;;;;;;;1.20;1.10;;;13.30;98.00;;;;;;5098911;28;20462;-68
2021/09/30 08:15:27;;;;;;;1.20;1.10;;;13.50;98.00;;;;;;5101943;28;21019;-68
2021/09/30 08:17:54;;;;;;;1.20;1.00;;;13.50;98.00;;;;;;5101094;28;20480;-70
2021/09/30 08:20:22;;;;;;;1.20;1.10;;;13.50;98.00;;;;;;5100657;28;20486;-68
2021/09/30 08:22:50;;;;;;;1.20;1.10;;;13.30;98.00;;;;;;5100467;28;20455;-68
2021/09/30 08:25:17;;;;;;;1.87;1.20;;;13.20;98.00;;;;;;5108020;28;20503;-68
2021/09/30 08:27:44;;;;;;;1.20;1.20;;;13.30;98.00;;;;;;5092755;28;20461;-69
2021/09/30 08:30:12;;;;;;;1.20;1.00;;;13.20;98.00;;;;;;5099865;28;20457;-68
2021/09/30 08:32:41;;;;;;;1.30;1.13;;;13.10;98.00;;;;;;5098260;28;20814;-68
2021/09/30 08:35:09;;;;;;;1.20;1.07;;;13.10;98.00;;;;;;5108289;28;20965;-70
2021/09/30 08:37:36;;;;;;;1.20;1.10;;;13.20;98.00;;;;;;5101073;28;21132;-69
2021/09/30 08:40:07;;;;;;;1.30;1.10;;;13.30;98.00;;;;;;5090859;28;20441;-69
2021/09/30 08:42:35;;;;;;;1.20;1.10;;;13.40;98.00;;;;;;5100094;28;20505;-71
2021/09/30 08:45:02;;;;;;;1.20;1.00;;;13.60;98.00;;;;;;5070384;28;20552;-69
2021/09/30 08:47:31;;;;;;;1.20;1.00;;;13.80;98.00;;;;;;5090218;28;20483;-68
2021/09/30 08:49:59;;;;;;;1.30;1.10;;;13.90;98.00;;;;;;5106218;28;20804;-71
2021/09/30 08:52:26;;;;;;;1.20;1.10;;;14.00;98.00;;;;;;5111684;28;20968;-72
2021/09/30 08:54:53;;;;;;;1.20;1.10;;;14.10;98.00;;;;;;5110715;28;20456;-71
2021/09/30 08:57:22;;;;;;;1.47;1.10;;;14.20;98.00;;;;;;5111508;28;20518;-72
2021/09/30 09:00:01;;;;;;;1.20;1.13;;;14.20;98.00;;;;;;5111768;28;20492;-71
2021/09/30 09:02:29;;;;;;;1.43;1.10;;;14.30;98.00;;;;;;5111620;28;20455;-71
2021/09/30 09:04:58;;;;;;;1.20;1.00;;;14.60;98.00;;;;;;5111760;28;20543;-71
2021/09/30 09:07:27;;;;;;;1.20;1.00;;;14.70;98.00;;;;;;5110206;28;20459;-71
2021/09/30 09:09:54;;;;;;;1.20;1.00;;;14.90;98.00;;;;;;5111763;28;20915;-71
2021/09/30 09:12:24;;;;;;;1.20;1.00;;;15.00;98.00;;;;;;5111532;28;20454;-70
2021/09/30 09:14:51;;;;;;;1.20;1.10;;;15.20;98.00;;;;;;5111675;28;20561;-71
2021/09/30 09:17:20;;;;;;;1.23;1.13;;;15.30;98.00;;;;;;5111511;28;20453;-70
2021/09/30 09:19:50;;;;;;;1.20;1.00;;;15.10;98.00;;;;;;5111521;28;20974;-71
2021/09/30 09:22:20;;;;;;;1.20;1.10;;;15.10;98.00;;;;;;5110365;28;20448;-72
2021/09/30 09:24:59;;;;;;;1.50;1.10;;;15.40;98.00;;;;;;5111521;28;20523;-71
2021/09/30 09:27:47;;;;;;;1.20;1.00;;;15.60;98.00;;;;;;5110186;28;20445;-70
2021/09/30 09:30:30;;;;;;;1.40;1.30;;;15.80;98.00;;;;;;5111359;28;20795;-71
2021/09/30 09:33:09;;;;;;;1.20;1.10;;;15.70;96.60;;;;;;5111384;28;20508;-72
2021/09/30 09:35:56;;;;;;;1.30;1.10;;;15.50;96.40;;;;;;5111381;28;20480;-71
2021/09/30 09:38:28;;;;;;;1.60;1.30;;;15.10;97.00;;;;;;5111276;28;20465;-71
2021/09/30 09:40:58;;;;;;;1.20;1.10;;;14.90;98.00;;;;;;5111437;28;20452;-70
2021/09/30 09:43:28;;;;;;;1.20;1.00;;;14.80;98.00;;;;;;5110925;28;20485;-70
2021/09/30 09:45:56;;;;;;;2.03;1.53;;;14.60;98.00;;;;;;5110911;28;20444;-71
2021/09/30 09:48:23;;;;;;;1.20;1.00;;;14.50;98.00;;;;;;5113810;28;20496;-71
2021/09/30 09:50:52;;;;;;;1.40;1.10;;;14.70;98.00;;;;;;5115685;28;20455;-72
2021/09/30 09:53:24;;;;;;;1.20;1.10;;;14.70;98.00;;;;;;5115254;28;20670;-70
2021/09/30 09:55:51;;;;;;;1.20;1.00;;;14.90;98.00;;;;;;5115360;28;20539;-71
2021/09/30 09:58:19;;;;;;;4.43;1.30;;;14.90;98.00;;;;;;5115033;28;20505;-70
2021/09/30 10:01:01;;;;;;;1.20;1.10;;;14.70;98.00;;;;;;5115048;28;20462;-72
2021/09/30 10:03:31;;;;;;;1.20;1.00;;;14.50;98.00;;;;;;5114990;28;21020;-70
2021/09/30 10:05:59;;;;;;;1.20;1.00;;;14.50;98.00;;;;;;5115096;28;20828;-72
2021/09/30 10:08:26;;;;;;;1.20;1.10;;;14.70;98.00;;;;;;5114789;27;20499;-71
2021/09/30 10:10:55;;;;;;;1.20;1.10;;;15.00;98.00;;;;;;5114894;28;20487;-71
2021/09/30 10:13:24;;;;;;;1.20;1.00;;;15.20;98.00;;;;;;5114870;28;20456;-71
2021/09/30 10:15:54;;;;;;;1.20;1.03;;;15.80;98.00;;;;;;5114960;28;20487;-71
2021/09/30 10:18:25;;;;;;;1.40;1.10;;;16.40;98.00;;;;;;5113359;28;20461;-72
2021/09/30 10:20:54;;;;;;;1.60;1.10;;;16.80;96.50;;;;;;5114963;28;20486;-71
2021/09/30 10:23:27;;;;;;;2.00;1.40;;;16.90;92.00;;;;;;5114334;28;20486;-71
2021/09/30 10:25:57;;;;;;;1.20;1.10;;;16.80;92.80;;;;;;5114452;28;20458;-71
2021/09/30 10:28:25;;;;;;;1.20;1.10;;;16.70;92.80;;;;;;5112761;28;20462;-71
2021/09/30 10:30:53;;;;;;;1.60;1.47;;;16.60;92.80;;;;;;5114285;28;21032;-68
2021/09/30 10:33:39;;;;;;;1.20;1.10;;;16.70;92.90;;;;;;5114055;28;20514;-69
2021/09/30 10:36:35;;;;;;;2.20;1.47;;;16.80;91.30;;;;;;5114503;28;20453;-69
2021/09/30 10:39:26;;;;;;;1.30;1.10;;;16.60;89.20;;;;;;5114567;28;20493;-69
2021/09/30 10:41:56;;;;;;;1.40;1.20;;;17.10;91.00;;;;;;5114301;28;20878;-68
2021/09/30 10:44:25;;;;;;;1.20;1.10;;;17.50;90.70;;;;;;5113977;28;20486;-69
2021/09/30 10:46:58;;;;;;;1.20;1.10;;;18.00;88.80;;;;;;5114244;28;20482;-69
2021/09/30 10:49:30;;;;;;;1.20;1.00;;;18.10;86.70;;;;;;5114276;28;20462;-69
2021/09/30 10:52:15;;;;;;;1.20;1.10;;;18.10;85.20;;;;;;5114211;28;20716;-69
2021/09/30 10:54:42;;;;;;;1.20;1.00;;;18.10;85.10;;;;;;5112294;28;20487;-69
2021/09/30 10:57:36;;;;;;;1.20;1.00;;;18.10;86.20;;;;;;5113995;28;20504;-68
2021/09/30 11:00:05;;;;;;;1.20;1.10;;;18.30;87.10;;;;;;5113156;28;20757;-69
2021/09/30 11:02:52;;;;;;;1.20;1.10;;;18.50;85.30;;;;;;5113722;28;20451;-68
2021/09/30 11:05:19;;;;;;;1.20;1.00;;;18.50;84.90;;;;;;5112502;28;20478;-68
2021/09/30 11:08:24;;;;;;;1.70;1.10;;;18.80;84.10;;;;;;5113881;28;20505;-69
2021/09/30 11:11:22;;;;;;;1.20;1.10;;;19.10;89.50;;;;;;5114284;28;20451;-69
2021/09/30 11:14:14;;;;;;;1.20;1.10;;;19.00;87.80;;;;;;5112649;28;20447;-68
2021/09/30 11:16:44;;;;;;;1.20;1.10;;;18.60;86.60;;;;;;5113955;28;20459;-69
2021/09/30 11:19:38;;;;;;;1.40;1.10;;;18.60;89.60;;;;;;5113809;28;20451;-69
2021/09/30 11:22:07;;;;;;;1.30;1.20;;;18.90;86.70;;;;;;5113475;28;20443;-69
2021/09/30 11:24:50;;;;;;;1.20;1.03;;;18.80;87.40;;;;;;5113658;28;20909;-67
2021/09/30 11:27:20;;;;;;;1.30;1.10;;;19.20;89.30;;;;;;5114317;28;20470;-70
2021/09/30 11:29:47;;;;;;;1.20;1.00;;;19.80;87.80;;;;;;5114704;28;20455;-70
2021/09/30 11:32:27;;;;;;;1.40;1.30;;;20.00;89.70;;;;;;5114241;28;20490;-70
2021/09/30 11:35:03;;;;;;;1.30;1.20;;;19.40;83.20;;;;;;5113793;28;20543;-69
2021/09/30 11:37:36;;;;;;;1.20;1.13;;;19.30;83.40;;;;;;5113635;28;20508;-70
2021/09/30 11:40:12;;;;;;;1.50;1.20;;;19.50;82.70;;;;;;5113497;28;20463;-69
2021/09/30 11:42:41;;;;;;;1.40;1.20;;;19.40;82.40;;;;;;5113152;28;20538;-69
2021/09/30 11:45:12;;;;;;;1.20;1.07;;;19.30;81.50;;;;;;5113368;28;20479;-69
2021/09/30 11:47:48;;;;;;;1.20;1.10;;;18.90;81.80;;;;;;5111990;28;20946;-69
2021/09/30 11:50:24;;;;;;;1.20;1.10;;;18.70;82.50;;;;;;5113264;28;20459;-69
2021/09/30 11:53:07;;;;;;;1.53;1.20;;;18.40;84.20;;;;;;5113076;28;20458;-69
2021/09/30 11:55:40;;;;;;;1.40;1.10;;;18.10;84.50;;;;;;5112146;28;20503;-69
2021/09/30 11:58:09;;;;;;;1.30;1.20;;;17.60;86.20;;;;;;5113001;28;20507;-69
2021/09/30 12:00:37;;;;;;;1.27;1.20;;;17.60;85.30;;;;;;5113109;28;20480;-69
2021/09/30 12:03:06;;;;;;;1.20;1.20;;;17.80;84.80;;;;;;5112970;28;20488;-69
2021/09/30 12:05:36;;;;;;;4.03;1.40;;;17.50;85.20;;;;;;5111727;28;20520;-69
2021/09/30 12:08:06;;;;;;;1.20;1.10;;;17.50;86.10;;;;;;5112522;28;20463;-69
2021/09/30 12:10:41;;;;;;;1.20;1.10;;;17.30;85.60;;;;;;5112259;28;20451;-69
2021/09/30 12:13:19;;;;;;;1.20;1.00;;;17.00;87.10;;;;;;5112646;28;21024;-69
2021/09/30 12:15:47;;;;;;;1.20;1.00;;;17.00;88.60;;;;;;5112950;28;20503;-69
2021/09/30 12:18:20;;;;;;;1.20;1.00;;;17.20;87.90;;;;;;5112587;28;20459;-69
2021/09/30 12:20:51;;;;;;;1.20;1.10;;;17.10;87.10;;;;;;5112600;28;20449;-69
2021/09/30 12:23:18;;;;;;;1.20;1.20;;;17.20;87.40;;;;;;5112468;28;20454;-69
2021/09/30 12:25:49;;;;;;;1.30;1.17;;;17.30;85.90;;;;;;5112534;28;20478;-69
2021/09/30 12:28:16;;;;;;;1.20;1.10;;;17.50;86.80;;;;;;5112381;28;20459;-71
2021/09/30 12:30:44;;;;;;;1.20;1.10;;;17.70;85.40;;;;;;5112574;28;20459;-70
2021/09/30 12:33:11;;;;;;;1.30;1.20;;;17.70;82.90;;;;;;5112673;28;20483;-69
2021/09/30 12:35:40;;;;;;;1.20;1.10;;;17.80;81.60;;;;;;5112503;28;20447;-70
2021/09/30 12:38:13;;;;;;;1.20;1.00;;;17.90;83.10;;;;;;5112280;28;20504;-69
2021/09/30 12:40:42;;;;;;;1.20;1.00;;;18.10;81.60;;;;;;5112217;28;20451;-70
2021/09/30 12:43:14;;;;;;;1.40;1.10;;;18.40;81.80;;;;;;5112299;28;20447;-70
2021/09/30 12:45:44;;;;;;;1.20;1.10;;;18.50;81.60;;;;;;5112003;28;20734;-69
2021/09/30 12:48:13;;;;;;;1.87;1.10;;;18.20;81.70;;;;;;5112098;28;20478;-69
2021/09/30 12:50:46;;;;;;;1.23;1.10;;;18.10;82.70;;;;;;5111953;28;20957;-70
2021/09/30 12:53:16;;;;;;;1.20;1.10;;;18.10;81.60;;;;;;5112121;28;20467;-70
2021/09/30 12:55:43;;;;;;;2.17;1.30;;;18.00;82.70;;;;;;5111888;28;20447;-70
2021/09/30 12:58:30;;;;;;;1.20;1.10;;;17.90;81.40;;;;;;5111783;28;20516;-69
2021/09/30 13:00:58;;;;;;;1.20;1.10;;;18.00;83.30;;;;;;5111993;28;20462;-69
2021/09/30 13:03:26;;;;;;;1.20;1.10;;;17.90;82.10;;;;;;5111782;28;20459;-70
2021/09/30 13:05:55;;;;;;;1.20;1.00;;;18.00;83.20;;;;;;5111537;28;20882;-69
2021/09/30 13:08:36;;;;;;;1.40;1.20;;;18.30;81.30;;;;;;5111458;28;20969;-69
2021/09/30 13:11:21;;;;;;;1.20;1.10;;;19.00;89.60;;;;;;5111588;28;20484;-72
2021/09/30 13:14:13;;;;;;;1.40;1.27;;;19.40;87.70;;;;;;5111457;28;20485;-70
2021/09/30 13:16:40;;;;;;;1.20;1.10;;;20.00;78.90;;;;;;5112025;28;20472;-69
2021/09/30 13:19:08;;;;;;;1.20;1.20;;;20.10;81.40;;;;;;5111651;28;20461;-70
2021/09/30 13:21:57;;;;;;;1.77;1.27;;;20.60;86.20;;;;;;5110040;28;20459;-70
2021/09/30 13:24:25;;;;;;;1.20;1.10;;;21.20;84.70;;;;;;5111437;28;20470;-70
2021/09/30 13:26:52;;;;;;;1.40;1.10;;;21.50;79.60;;;;;;5111499;28;20470;-71
2021/09/30 13:29:22;;;;;;;1.40;1.20;;;22.10;78.50;;;;;;5111495;28;20512;-69
2021/09/30 13:31:49;;;;;;;2.10;1.37;;;22.40;74.80;;;;;;5111067;28;20535;-70
2021/09/30 13:34:16;;;;;;;1.20;1.10;;;22.60;76.50;;;;;;5111479;28;21120;-71
2021/09/30 13:36:43;;;;;;;1.20;1.10;;;22.70;70.70;;;;;;5111387;28;20575;-70
2021/09/30 13:39:10;;;;;;;1.20;1.10;;;22.10;71.90;;;;;;5111391;28;20520;-71
2021/09/30 13:41:37;;;;;;;1.20;1.10;;;22.10;74.20;;;;;;5111357;28;20461;-70
2021/09/30 13:44:04;;;;;;;1.20;1.20;;;22.00;69.50;;;;;;5111305;28;20451;-71
2021/09/30 13:46:34;;;;;;;1.20;1.10;;;21.90;73.30;;;;;;5111188;28;20518;-70
2021/09/30 13:49:01;;;;;;;1.27;1.07;;;22.20;70.50;;;;;;5111385;28;20462;-70
2021/09/30 13:51:29;;;;;;;1.20;1.10;;;22.10;70.90;;;;;;5111488;28;20577;-71
2021/09/30 13:53:56;;;;;;;1.33;1.13;;;22.50;70.50;;;;;;5111336;28;20455;-71
2021/09/30 13:56:25;;;;;;;1.20;1.00;;;22.80;69.10;;;;;;5111298;28;20500;-71
2021/09/30 13:58:52;;;;;;;1.20;1.10;;;22.90;67.50;;;;;;5109889;28;21022;-70
2021/09/30 14:01:21;;;;;;;1.80;1.20;;;22.70;69.50;;;;;;5111102;28;20455;-71
2021/09/30 14:03:49;;;;;;;1.20;1.10;;;23.00;71.80;;;;;;5111362;28;20541;-71
2021/09/30 14:06:17;;;;;;;1.20;1.10;;;23.20;67.40;;;;;;5111189;28;20483;-71
2021/09/30 14:08:44;;;;;;;1.40;1.30;;;23.30;67.40;;;;;;5110736;28;20463;-71
2021/09/30 14:11:13;;;;;;;1.40;1.20;;;23.50;67.60;;;;;;5111897;28;20447;-71
2021/09/30 14:13:41;;;;;;;1.20;1.10;;;23.60;65.90;;;;;;5111685;28;20458;-70
2021/09/30 14:16:09;;;;;;;1.20;1.00;;;23.40;64.00;;;;;;5111651;28;20450;-71
2021/09/30 14:18:36;;;;;;;1.27;1.17;;;23.20;64.70;;;;;;5111513;28;20893;-70
2021/09/30 14:21:05;;;;;;;1.30;1.20;;;23.20;64.10;;;;;;5111503;28;20451;-69
2021/09/30 14:23:32;;;;;;;1.20;1.10;;;23.20;66.10;;;;;;5103233;28;20447;-71
2021/09/30 14:26:00;;;;;;;1.23;1.10;;;23.40;66.40;;;;;;5111505;28;20525;-71
2021/09/30 14:28:29;;;;;;;1.20;1.10;;;23.90;65.30;;;;;;5111616;28;20459;-71
2021/09/30 14:30:56;;;;;;;1.20;1.10;;;24.00;63.10;;;;;;5111540;28;20550;-72
2021/09/30 14:33:24;;;;;;;1.30;1.20;;;24.20;63.30;;;;;;5112064;28;20455;-74
2021/09/30 14:35:52;;;;;;;1.30;1.20;;;24.30;63.50;;;;;;5114935;28;20481;-73
2021/09/30 14:38:22;;;;;;;1.20;1.10;;;24.20;63.20;;;;;;5115128;28;20459;-70
2021/09/30 14:40:50;;;;;;;1.23;1.10;;;23.40;62.70;;;;;;5092815;28;20456;-68
2021/09/30 14:43:23;;;;;;;1.40;1.23;;;22.90;62.30;;;;;;5098103;28;20500;-71
2021/09/30 14:45:51;;;;;;;1.20;1.10;;;23.20;65.60;;;;;;5096566;28;20499;-74
2021/09/30 14:48:19;;;;;;;1.20;1.20;;;23.60;62.40;;;;;;5103471;28;20491;-76
2021/09/30 14:50:46;;;;;;;1.30;1.27;;;23.60;60.70;;;;;;5105021;28;20554;-74
2021/09/30 14:53:14;;;;;;;1.30;1.10;;;23.50;61.10;;;;;;5095870;28;20501;-74
2021/09/30 14:55:42;;;;;;;1.30;1.10;;;22.70;61.90;;;;;;5099577;28;20454;-75
2021/09/30 14:58:09;;;;;;;1.20;1.20;;;22.90;65.60;;;;;;5102071;28;20451;-75
2021/09/30 15:00:36;;;;;;;1.20;1.10;;;23.40;64.60;;;;;;5104297;28;20962;-75
2021/09/30 15:03:05;;;;;;;1.50;1.20;;;22.90;61.20;;;;;;5076672;28;20453;-74
2021/09/30 15:05:33;;;;;;;1.20;1.10;;;23.20;64.70;;;;;;5074800;28;20495;-76
2021/09/30 15:08:00;;;;;;;1.20;1.20;;;23.80;66.40;;;;;;5089813;28;20505;-75
2021/09/30 15:10:28;;;;;;;1.20;1.10;;;24.20;69.50;;;;;;5097189;28;20479;-75
2021/09/30 15:12:56;;;;;;;1.57;1.33;;;24.60;68.10;;;;;;5105520;27;20451;-75
2021/09/30 15:15:24;;;;;;;1.33;1.27;;;24.70;61.60;;;;;;5097741;28;20451;-75
2021/09/30 15:18:00;;;;;;;1.20;1.10;;;24.70;64.60;;;;;;5100891;28;20451;-75
2021/09/30 15:23:14;;;;;;;2.43;1.20;;;24.90;61.40;;;;;;5092413;28;20467;-74
2021/09/30 15:25:42;;;;;;;1.30;1.30;;;24.80;64.70;;;;;;5100279;28;20552;-75
2021/09/30 15:28:14;;;;;;;2.07;1.20;;;24.90;68.10;;;;;;5101141;28;20456;-75
2021/09/30 15:30:42;;;;;;;1.30;1.30;;;24.50;69.00;;;;;;5100987;28;20498;-75
2021/09/30 15:33:10;;;;;;;1.20;1.10;;;24.10;68.80;;;;;;5107885;28;20512;-76
2021/09/30 15:35:40;;;;;;;1.60;1.40;;;24.20;70.30;;;;;;5109481;28;20493;-76
2021/09/30 15:38:08;;;;;;;1.23;1.10;;;24.50;69.90;;;;;;5072174;28;20457;-75
2021/09/30 15:40:35;;;;;;;1.20;1.10;;;24.50;68.70;;;;;;5099107;28;20893;-76
2021/09/30 15:43:02;;;;;;;1.40;1.20;;;24.70;67.80;;;;;;5100098;28;20458;-76